sensor_id;sensor_type;location;lat;lon;timestamp;P1;durP1;ratioP1;P2;durP2;ratioP2
10341;SDS011;5216;54.602;18.356;2022-08-23T00:01:24;4.25;;;1.90;;
10341;SDS011;5216;54.602;18.356;2022-08-23T00:03:55;4.07;;;1.90;;
10341;SDS011;5216;54.602;18.356;2022-08-23T00:06:22;4.53;;;1.77;;
10341;SDS011;5216;54.602;18.356;2022-08-23T00:08:50;4.53;;;2.15;;
10341;SDS011;5216;54.602;18.356;2022-08-23T00:13:49;2.58;;;1.52;;
10341;SDS011;5216;54.602;18.356;2022-08-23T00:16:16;2.42;;;1.73;;
10341;SDS011;5216;54.602;18.356;2022-08-23T00:18:42;3.42;;;1.70;;
10341;SDS011;5216;54.602;18.356;2022-08-23T00:21:14;3.65;;;1.73;;
10341;SDS011;5216;54.602;18.356;2022-08-23T00:23:41;3.97;;;1.65;;
10341;SDS011;5216;54.602;18.356;2022-08-23T00:26:07;3.28;;;1.48;;
10341;SDS011;5216;54.602;18.356;2022-08-23T00:28:34;2.80;;;1.60;;
10341;SDS011;5216;54.602;18.356;2022-08-23T00:31:01;3.60;;;1.80;;
10341;SDS011;5216;54.602;18.356;2022-08-23T00:33:27;3.35;;;1.98;;
10341;SDS011;5216;54.602;18.356;2022-08-23T00:35:54;4.05;;;1.75;;
10341;SDS011;5216;54.602;18.356;2022-08-23T00:38:20;3.00;;;1.45;;
10341;SDS011;5216;54.602;18.356;2022-08-23T00:41:00;4.45;;;1.75;;
10341;SDS011;5216;54.602;18.356;2022-08-23T00:43:35;3.22;;;1.60;;
10341;SDS011;5216;54.602;18.356;2022-08-23T00:49:06;3.70;;;1.70;;
10341;SDS011;5216;54.602;18.356;2022-08-23T00:51:47;2.75;;;1.83;;
10341;SDS011;5216;54.602;18.356;2022-08-23T00:54:18;2.45;;;1.38;;
10341;SDS011;5216;54.602;18.356;2022-08-23T00:56:45;3.50;;;1.73;;
10341;SDS011;5216;54.602;18.356;2022-08-23T00:59:11;4.45;;;1.65;;
10341;SDS011;5216;54.602;18.356;2022-08-23T01:01:38;4.13;;;1.80;;
10341;SDS011;5216;54.602;18.356;2022-08-23T01:04:05;2.90;;;1.70;;
10341;SDS011;5216;54.602;18.356;2022-08-23T01:09:27;3.60;;;1.75;;
10341;SDS011;5216;54.602;18.356;2022-08-23T01:12:02;2.83;;;1.63;;
10341;SDS011;5216;54.602;18.356;2022-08-23T01:14:35;3.15;;;1.70;;
10341;SDS011;5216;54.602;18.356;2022-08-23T01:17:14;3.55;;;1.50;;
10341;SDS011;5216;54.602;18.356;2022-08-23T01:19:45;5.15;;;1.60;;
10341;SDS011;5216;54.602;18.356;2022-08-23T01:22:15;3.42;;;1.73;;
10341;SDS011;5216;54.602;18.356;2022-08-23T01:24:45;3.13;;;1.60;;
10341;SDS011;5216;54.602;18.356;2022-08-23T01:27:31;2.90;;;1.58;;
10341;SDS011;5216;54.602;18.356;2022-08-23T01:29:58;3.38;;;1.70;;
10341;SDS011;5216;54.602;18.356;2022-08-23T01:32:24;4.07;;;1.70;;
10341;SDS011;5216;54.602;18.356;2022-08-23T01:34:51;3.00;;;1.70;;
10341;SDS011;5216;54.602;18.356;2022-08-23T01:37:18;2.13;;;1.50;;
10341;SDS011;5216;54.602;18.356;2022-08-23T01:39:46;4.25;;;1.85;;
10341;SDS011;5216;54.602;18.356;2022-08-23T01:42:13;2.72;;;1.50;;
10341;SDS011;5216;54.602;18.356;2022-08-23T01:44:39;5.38;;;1.75;;
10341;SDS011;5216;54.602;18.356;2022-08-23T01:47:06;3.28;;;1.85;;
10341;SDS011;5216;54.602;18.356;2022-08-23T01:49:33;2.72;;;1.80;;
10341;SDS011;5216;54.602;18.356;2022-08-23T01:52:00;4.10;;;1.63;;
10341;SDS011;5216;54.602;18.356;2022-08-23T01:54:26;4.40;;;1.73;;
10341;SDS011;5216;54.602;18.356;2022-08-23T01:56:52;2.58;;;1.60;;
10341;SDS011;5216;54.602;18.356;2022-08-23T01:59:19;2.78;;;1.38;;
10341;SDS011;5216;54.602;18.356;2022-08-23T02:01:46;3.55;;;1.85;;
10341;SDS011;5216;54.602;18.356;2022-08-23T02:04:13;2.38;;;1.45;;
10341;SDS011;5216;54.602;18.356;2022-08-23T02:06:39;4.05;;;1.90;;
10341;SDS011;5216;54.602;18.356;2022-08-23T02:09:06;3.05;;;1.80;;
10341;SDS011;5216;54.602;18.356;2022-08-23T02:11:43;4.03;;;1.63;;
10341;SDS011;5216;54.602;18.356;2022-08-23T02:14:11;3.10;;;1.67;;
10341;SDS011;5216;54.602;18.356;2022-08-23T02:16:49;4.80;;;1.50;;
10341;SDS011;5216;54.602;18.356;2022-08-23T02:19:29;3.45;;;1.83;;
10341;SDS011;5216;54.602;18.356;2022-08-23T02:21:55;4.63;;;2.15;;
10341;SDS011;5216;54.602;18.356;2022-08-23T02:24:23;6.57;;;1.80;;
10341;SDS011;5216;54.602;18.356;2022-08-23T02:26:51;3.30;;;1.80;;
10341;SDS011;5216;54.602;18.356;2022-08-23T02:29:22;4.70;;;1.55;;
10341;SDS011;5216;54.602;18.356;2022-08-23T02:31:49;2.17;;;1.55;;
10341;SDS011;5216;54.602;18.356;2022-08-23T02:34:16;4.43;;;1.80;;
10341;SDS011;5216;54.602;18.356;2022-08-23T02:36:43;3.08;;;1.60;;
10341;SDS011;5216;54.602;18.356;2022-08-23T02:39:10;3.78;;;1.50;;
10341;SDS011;5216;54.602;18.356;2022-08-23T02:41:38;3.30;;;1.67;;
10341;SDS011;5216;54.602;18.356;2022-08-23T02:44:05;4.07;;;1.80;;
10341;SDS011;5216;54.602;18.356;2022-08-23T02:46:31;4.35;;;1.80;;
10341;SDS011;5216;54.602;18.356;2022-08-23T02:48:58;3.35;;;1.60;;
10341;SDS011;5216;54.602;18.356;2022-08-23T02:51:24;4.63;;;2.00;;
10341;SDS011;5216;54.602;18.356;2022-08-23T02:53:51;3.40;;;1.70;;
10341;SDS011;5216;54.602;18.356;2022-08-23T02:56:18;2.83;;;1.70;;
10341;SDS011;5216;54.602;18.356;2022-08-23T02:58:47;3.47;;;1.55;;
10341;SDS011;5216;54.602;18.356;2022-08-23T03:01:30;4.70;;;2.05;;
10341;SDS011;5216;54.602;18.356;2022-08-23T03:03:57;2.90;;;1.88;;
10341;SDS011;5216;54.602;18.356;2022-08-23T03:06:23;2.97;;;1.75;;
10341;SDS011;5216;54.602;18.356;2022-08-23T03:08:52;3.88;;;1.67;;
10341;SDS011;5216;54.602;18.356;2022-08-23T03:11:20;5.15;;;1.83;;
10341;SDS011;5216;54.602;18.356;2022-08-23T03:13:47;3.95;;;2.00;;
10341;SDS011;5216;54.602;18.356;2022-08-23T03:16:14;4.00;;;1.95;;
10341;SDS011;5216;54.602;18.356;2022-08-23T03:18:41;3.75;;;1.95;;
10341;SDS011;5216;54.602;18.356;2022-08-23T03:21:08;3.83;;;2.10;;
10341;SDS011;5216;54.602;18.356;2022-08-23T03:23:35;3.85;;;2.13;;
10341;SDS011;5216;54.602;18.356;2022-08-23T03:26:02;5.90;;;2.17;;
10341;SDS011;5216;54.602;18.356;2022-08-23T03:28:29;5.25;;;2.00;;
10341;SDS011;5216;54.602;18.356;2022-08-23T03:30:56;4.85;;;2.05;;
10341;SDS011;5216;54.602;18.356;2022-08-23T03:33:22;3.80;;;1.80;;
10341;SDS011;5216;54.602;18.356;2022-08-23T03:35:49;3.70;;;1.83;;
10341;SDS011;5216;54.602;18.356;2022-08-23T03:38:16;3.67;;;1.95;;
10341;SDS011;5216;54.602;18.356;2022-08-23T03:40:43;2.95;;;1.80;;
10341;SDS011;5216;54.602;18.356;2022-08-23T03:43:10;3.58;;;2.00;;
10341;SDS011;5216;54.602;18.356;2022-08-23T03:45:36;3.50;;;1.80;;
10341;SDS011;5216;54.602;18.356;2022-08-23T03:48:03;3.58;;;1.92;;
10341;SDS011;5216;54.602;18.356;2022-08-23T03:50:29;3.70;;;1.70;;
10341;SDS011;5216;54.602;18.356;2022-08-23T03:52:56;4.25;;;2.17;;
10341;SDS011;5216;54.602;18.356;2022-08-23T03:55:22;4.82;;;1.83;;
10341;SDS011;5216;54.602;18.356;2022-08-23T03:57:49;4.95;;;1.85;;
10341;SDS011;5216;54.602;18.356;2022-08-23T04:00:15;3.90;;;2.20;;
10341;SDS011;5216;54.602;18.356;2022-08-23T04:02:45;5.45;;;2.10;;
10341;SDS011;5216;54.602;18.356;2022-08-23T04:05:12;5.05;;;2.38;;
10341;SDS011;5216;54.602;18.356;2022-08-23T04:07:38;3.88;;;2.10;;
10341;SDS011;5216;54.602;18.356;2022-08-23T04:10:06;3.03;;;2.00;;
10341;SDS011;5216;54.602;18.356;2022-08-23T04:12:32;3.58;;;1.92;;
10341;SDS011;5216;54.602;18.356;2022-08-23T04:14:59;4.03;;;2.13;;
10341;SDS011;5216;54.602;18.356;2022-08-23T04:17:27;3.97;;;2.00;;
10341;SDS011;5216;54.602;18.356;2022-08-23T04:19:57;5.88;;;2.40;;
10341;SDS011;5216;54.602;18.356;2022-08-23T04:22:24;4.47;;;2.17;;
10341;SDS011;5216;54.602;18.356;2022-08-23T04:24:50;5.05;;;2.00;;
10341;SDS011;5216;54.602;18.356;2022-08-23T04:27:17;3.78;;;2.10;;
10341;SDS011;5216;54.602;18.356;2022-08-23T04:29:43;5.65;;;1.92;;
10341;SDS011;5216;54.602;18.356;2022-08-23T04:32:10;4.03;;;1.85;;
10341;SDS011;5216;54.602;18.356;2022-08-23T04:34:37;3.92;;;1.80;;
10341;SDS011;5216;54.602;18.356;2022-08-23T04:37:05;6.90;;;2.03;;
10341;SDS011;5216;54.602;18.356;2022-08-23T04:39:35;4.43;;;2.20;;
10341;SDS011;5216;54.602;18.356;2022-08-23T04:42:22;4.28;;;2.25;;
10341;SDS011;5216;54.602;18.356;2022-08-23T04:44:49;4.10;;;1.92;;
10341;SDS011;5216;54.602;18.356;2022-08-23T04:47:15;4.13;;;1.92;;
10341;SDS011;5216;54.602;18.356;2022-08-23T04:49:42;4.32;;;1.98;;
10341;SDS011;5216;54.602;18.356;2022-08-23T04:52:09;3.25;;;2.10;;
10341;SDS011;5216;54.602;18.356;2022-08-23T04:54:35;7.07;;;2.22;;
10341;SDS011;5216;54.602;18.356;2022-08-23T04:57:02;5.03;;;2.30;;
10341;SDS011;5216;54.602;18.356;2022-08-23T04:59:29;5.70;;;2.85;;
10341;SDS011;5216;54.602;18.356;2022-08-23T05:01:55;9.30;;;2.50;;
10341;SDS011;5216;54.602;18.356;2022-08-23T05:04:22;5.43;;;2.42;;
10341;SDS011;5216;54.602;18.356;2022-08-23T05:06:48;4.72;;;2.55;;
10341;SDS011;5216;54.602;18.356;2022-08-23T05:09:15;3.88;;;2.53;;
10341;SDS011;5216;54.602;18.356;2022-08-23T05:11:45;4.15;;;2.17;;
10341;SDS011;5216;54.602;18.356;2022-08-23T05:14:12;5.78;;;2.53;;
10341;SDS011;5216;54.602;18.356;2022-08-23T05:16:38;3.92;;;2.40;;
10341;SDS011;5216;54.602;18.356;2022-08-23T05:19:05;5.30;;;2.03;;
10341;SDS011;5216;54.602;18.356;2022-08-23T05:21:31;6.32;;;2.80;;
10341;SDS011;5216;54.602;18.356;2022-08-23T05:23:58;5.97;;;2.50;;
10341;SDS011;5216;54.602;18.356;2022-08-23T05:26:28;4.57;;;2.45;;
10341;SDS011;5216;54.602;18.356;2022-08-23T05:28:55;5.50;;;2.40;;
10341;SDS011;5216;54.602;18.356;2022-08-23T05:31:22;5.15;;;2.33;;
10341;SDS011;5216;54.602;18.356;2022-08-23T05:33:49;6.07;;;2.80;;
10341;SDS011;5216;54.602;18.356;2022-08-23T05:36:17;8.73;;;2.90;;
10341;SDS011;5216;54.602;18.356;2022-08-23T05:38:43;8.70;;;3.13;;
10341;SDS011;5216;54.602;18.356;2022-08-23T05:41:13;8.52;;;3.20;;
10341;SDS011;5216;54.602;18.356;2022-08-23T05:43:39;6.97;;;3.47;;
10341;SDS011;5216;54.602;18.356;2022-08-23T05:46:10;8.40;;;3.58;;
10341;SDS011;5216;54.602;18.356;2022-08-23T05:48:38;7.75;;;3.95;;
10341;SDS011;5216;54.602;18.356;2022-08-23T05:51:07;8.73;;;3.67;;
10341;SDS011;5216;54.602;18.356;2022-08-23T05:53:33;7.15;;;4.43;;
10341;SDS011;5216;54.602;18.356;2022-08-23T05:56:09;6.90;;;3.85;;
10341;SDS011;5216;54.602;18.356;2022-08-23T05:58:36;7.60;;;3.58;;
10341;SDS011;5216;54.602;18.356;2022-08-23T06:01:03;6.47;;;3.30;;
10341;SDS011;5216;54.602;18.356;2022-08-23T06:03:29;8.57;;;4.22;;
10341;SDS011;5216;54.602;18.356;2022-08-23T06:05:59;9.60;;;5.75;;
10341;SDS011;5216;54.602;18.356;2022-08-23T06:08:27;10.45;;;6.85;;
10341;SDS011;5216;54.602;18.356;2022-08-23T06:11:13;7.30;;;3.55;;
10341;SDS011;5216;54.602;18.356;2022-08-23T06:13:41;6.30;;;3.67;;
10341;SDS011;5216;54.602;18.356;2022-08-23T06:16:08;8.30;;;3.78;;
10341;SDS011;5216;54.602;18.356;2022-08-23T06:18:40;6.25;;;3.63;;
10341;SDS011;5216;54.602;18.356;2022-08-23T06:21:08;7.03;;;3.80;;
10341;SDS011;5216;54.602;18.356;2022-08-23T06:23:35;4.80;;;3.80;;
10341;SDS011;5216;54.602;18.356;2022-08-23T06:26:18;9.25;;;5.38;;
10341;SDS011;5216;54.602;18.356;2022-08-23T06:28:46;7.20;;;5.38;;
10341;SDS011;5216;54.602;18.356;2022-08-23T06:31:16;4.30;;;3.00;;
10341;SDS011;5216;54.602;18.356;2022-08-23T06:34:02;6.53;;;2.80;;
10341;SDS011;5216;54.602;18.356;2022-08-23T06:36:29;5.55;;;3.03;;
10341;SDS011;5216;54.602;18.356;2022-08-23T06:38:56;7.10;;;3.20;;
10341;SDS011;5216;54.602;18.356;2022-08-23T06:41:22;4.85;;;2.90;;
10341;SDS011;5216;54.602;18.356;2022-08-23T06:43:51;7.20;;;2.95;;
10341;SDS011;5216;54.602;18.356;2022-08-23T06:46:22;4.78;;;2.70;;
10341;SDS011;5216;54.602;18.356;2022-08-23T06:48:49;4.53;;;2.53;;
10341;SDS011;5216;54.602;18.356;2022-08-23T06:51:20;4.60;;;2.50;;
10341;SDS011;5216;54.602;18.356;2022-08-23T06:53:48;10.82;;;8.07;;
10341;SDS011;5216;54.602;18.356;2022-08-23T06:56:15;6.50;;;4.00;;
10341;SDS011;5216;54.602;18.356;2022-08-23T06:58:41;7.60;;;5.05;;
10341;SDS011;5216;54.602;18.356;2022-08-23T07:01:09;4.07;;;3.08;;
10341;SDS011;5216;54.602;18.356;2022-08-23T07:03:56;4.97;;;2.90;;
10341;SDS011;5216;54.602;18.356;2022-08-23T07:06:25;5.22;;;2.78;;
10341;SDS011;5216;54.602;18.356;2022-08-23T07:08:51;5.25;;;3.00;;
10341;SDS011;5216;54.602;18.356;2022-08-23T07:11:18;3.92;;;2.67;;
10341;SDS011;5216;54.602;18.356;2022-08-23T07:13:45;5.10;;;3.00;;
10341;SDS011;5216;54.602;18.356;2022-08-23T07:16:14;7.05;;;3.00;;
10341;SDS011;5216;54.602;18.356;2022-08-23T07:18:43;7.03;;;2.90;;
10341;SDS011;5216;54.602;18.356;2022-08-23T07:21:11;8.45;;;3.67;;
10341;SDS011;5216;54.602;18.356;2022-08-23T07:23:38;5.47;;;3.40;;
10341;SDS011;5216;54.602;18.356;2022-08-23T07:26:13;6.00;;;3.25;;
10341;SDS011;5216;54.602;18.356;2022-08-23T07:28:40;4.68;;;2.83;;
10341;SDS011;5216;54.602;18.356;2022-08-23T07:31:08;6.43;;;4.85;;
10341;SDS011;5216;54.602;18.356;2022-08-23T07:33:40;7.70;;;4.60;;
10341;SDS011;5216;54.602;18.356;2022-08-23T07:36:11;5.93;;;3.53;;
10341;SDS011;5216;54.602;18.356;2022-08-23T07:38:38;6.18;;;3.85;;
10341;SDS011;5216;54.602;18.356;2022-08-23T07:41:05;4.88;;;3.38;;
10341;SDS011;5216;54.602;18.356;2022-08-23T07:43:32;5.40;;;3.50;;
10341;SDS011;5216;54.602;18.356;2022-08-23T07:45:59;6.13;;;3.20;;
10341;SDS011;5216;54.602;18.356;2022-08-23T07:48:26;5.47;;;2.95;;
10341;SDS011;5216;54.602;18.356;2022-08-23T07:51:13;5.35;;;3.17;;
10341;SDS011;5216;54.602;18.356;2022-08-23T07:53:40;5.50;;;2.92;;
10341;SDS011;5216;54.602;18.356;2022-08-23T07:56:12;4.15;;;3.15;;
10341;SDS011;5216;54.602;18.356;2022-08-23T07:58:39;5.30;;;3.17;;
10341;SDS011;5216;54.602;18.356;2022-08-23T08:01:14;3.78;;;2.70;;
10341;SDS011;5216;54.602;18.356;2022-08-23T08:03:42;5.22;;;2.95;;
10341;SDS011;5216;54.602;18.356;2022-08-23T08:06:10;5.03;;;2.95;;
10341;SDS011;5216;54.602;18.356;2022-08-23T08:08:38;5.70;;;3.00;;
10341;SDS011;5216;54.602;18.356;2022-08-23T08:11:07;7.78;;;3.72;;
10341;SDS011;5216;54.602;18.356;2022-08-23T08:13:34;11.35;;;8.63;;
10341;SDS011;5216;54.602;18.356;2022-08-23T08:16:03;6.47;;;3.97;;
10341;SDS011;5216;54.602;18.356;2022-08-23T08:18:30;6.60;;;3.97;;
10341;SDS011;5216;54.602;18.356;2022-08-23T08:20:56;6.75;;;4.28;;
10341;SDS011;5216;54.602;18.356;2022-08-23T08:23:23;9.23;;;3.65;;
10341;SDS011;5216;54.602;18.356;2022-08-23T08:25:57;7.22;;;3.53;;
10341;SDS011;5216;54.602;18.356;2022-08-23T08:28:24;6.30;;;3.47;;
10341;SDS011;5216;54.602;18.356;2022-08-23T08:30:50;6.93;;;3.53;;
10341;SDS011;5216;54.602;18.356;2022-08-23T08:33:16;5.53;;;3.28;;
10341;SDS011;5216;54.602;18.356;2022-08-23T08:35:46;6.78;;;3.78;;
10341;SDS011;5216;54.602;18.356;2022-08-23T08:38:22;5.13;;;3.60;;
10341;SDS011;5216;54.602;18.356;2022-08-23T08:41:00;6.93;;;3.58;;
10341;SDS011;5216;54.602;18.356;2022-08-23T08:46:03;7.32;;;3.75;;
10341;SDS011;5216;54.602;18.356;2022-08-23T08:48:35;9.13;;;3.70;;
10341;SDS011;5216;54.602;18.356;2022-08-23T08:51:07;7.10;;;3.30;;
10341;SDS011;5216;54.602;18.356;2022-08-23T08:53:40;7.30;;;3.92;;
10341;SDS011;5216;54.602;18.356;2022-08-23T08:56:23;9.20;;;3.70;;
10341;SDS011;5216;54.602;18.356;2022-08-23T08:58:59;7.88;;;4.05;;
10341;SDS011;5216;54.602;18.356;2022-08-23T09:01:26;7.97;;;3.83;;
10341;SDS011;5216;54.602;18.356;2022-08-23T09:03:54;7.47;;;3.72;;
10341;SDS011;5216;54.602;18.356;2022-08-23T09:09:12;6.55;;;4.18;;
10341;SDS011;5216;54.602;18.356;2022-08-23T09:11:50;10.55;;;4.47;;
10341;SDS011;5216;54.602;18.356;2022-08-23T09:17:05;9.38;;;4.43;;
10341;SDS011;5216;54.602;18.356;2022-08-23T09:19:33;8.40;;;4.32;;
10341;SDS011;5216;54.602;18.356;2022-08-23T09:22:04;8.98;;;3.88;;
10341;SDS011;5216;54.602;18.356;2022-08-23T09:24:33;6.82;;;4.15;;
10341;SDS011;5216;54.602;18.356;2022-08-23T09:26:59;6.57;;;3.95;;
10341;SDS011;5216;54.602;18.356;2022-08-23T09:29:27;7.20;;;4.38;;
10341;SDS011;5216;54.602;18.356;2022-08-23T09:31:55;9.13;;;5.10;;
10341;SDS011;5216;54.602;18.356;2022-08-23T09:39:40;8.25;;;4.85;;
10341;SDS011;5216;54.602;18.356;2022-08-23T09:42:08;9.82;;;5.60;;
10341;SDS011;5216;54.602;18.356;2022-08-23T09:47:11;16.63;;;11.88;;
10341;SDS011;5216;54.602;18.356;2022-08-23T09:49:44;13.18;;;6.82;;
10341;SDS011;5216;54.602;18.356;2022-08-23T09:52:13;9.52;;;5.65;;
10341;SDS011;5216;54.602;18.356;2022-08-23T09:54:56;10.57;;;7.03;;
10341;SDS011;5216;54.602;18.356;2022-08-23T09:57:25;10.82;;;5.75;;
10341;SDS011;5216;54.602;18.356;2022-08-23T09:59:53;7.63;;;4.38;;
10341;SDS011;5216;54.602;18.356;2022-08-23T10:02:31;9.20;;;3.97;;
10341;SDS011;5216;54.602;18.356;2022-08-23T10:05:05;6.28;;;4.00;;
10341;SDS011;5216;54.602;18.356;2022-08-23T10:07:39;7.30;;;4.00;;
10341;SDS011;5216;54.602;18.356;2022-08-23T10:12:49;6.82;;;3.88;;
10341;SDS011;5216;54.602;18.356;2022-08-23T10:15:16;6.80;;;3.40;;
10341;SDS011;5216;54.602;18.356;2022-08-23T10:17:58;4.85;;;3.20;;
10341;SDS011;5216;54.602;18.356;2022-08-23T10:20:34;7.15;;;3.40;;
10341;SDS011;5216;54.602;18.356;2022-08-23T10:23:20;6.97;;;3.50;;
10341;SDS011;5216;54.602;18.356;2022-08-23T10:25:58;6.40;;;3.65;;
10341;SDS011;5216;54.602;18.356;2022-08-23T10:31:31;4.85;;;3.38;;
10341;SDS011;5216;54.602;18.356;2022-08-23T10:39:26;5.70;;;3.63;;
10341;SDS011;5216;54.602;18.356;2022-08-23T10:46:57;7.78;;;3.90;;
10341;SDS011;5216;54.602;18.356;2022-08-23T10:49:25;8.02;;;4.25;;
10341;SDS011;5216;54.602;18.356;2022-08-23T10:51:52;13.43;;;8.80;;
10341;SDS011;5216;54.602;18.356;2022-08-23T10:54:34;8.63;;;4.78;;
10341;SDS011;5216;54.602;18.356;2022-08-23T10:57:14;7.53;;;3.80;;
10341;SDS011;5216;54.602;18.356;2022-08-23T10:59:43;8.73;;;3.95;;
10341;SDS011;5216;54.602;18.356;2022-08-23T11:07:31;6.53;;;4.30;;
10341;SDS011;5216;54.602;18.356;2022-08-23T11:12:59;8.55;;;4.93;;
10341;SDS011;5216;54.602;18.356;2022-08-23T11:15:27;10.93;;;5.35;;
10341;SDS011;5216;54.602;18.356;2022-08-23T11:17:58;11.70;;;6.32;;
10341;SDS011;5216;54.602;18.356;2022-08-23T11:23:11;7.07;;;5.22;;
10341;SDS011;5216;54.602;18.356;2022-08-23T11:25:39;11.45;;;5.00;;
10341;SDS011;5216;54.602;18.356;2022-08-23T11:36:14;8.98;;;5.70;;
10341;SDS011;5216;54.602;18.356;2022-08-23T11:41:34;14.30;;;5.10;;
10341;SDS011;5216;54.602;18.356;2022-08-23T11:46:29;8.90;;;4.70;;
10341;SDS011;5216;54.602;18.356;2022-08-23T12:01:51;8.80;;;4.88;;
10341;SDS011;5216;54.602;18.356;2022-08-23T12:04:31;9.13;;;5.38;;
10341;SDS011;5216;54.602;18.356;2022-08-23T12:06:58;12.95;;;5.65;;
10341;SDS011;5216;54.602;18.356;2022-08-23T12:16:57;15.60;;;6.00;;
10341;SDS011;5216;54.602;18.356;2022-08-23T12:19:29;11.88;;;5.25;;
10341;SDS011;5216;54.602;18.356;2022-08-23T12:24:57;10.20;;;5.43;;
10341;SDS011;5216;54.602;18.356;2022-08-23T12:30:20;12.32;;;8.73;;
10341;SDS011;5216;54.602;18.356;2022-08-23T12:40:42;13.27;;;5.63;;
10341;SDS011;5216;54.602;18.356;2022-08-23T12:43:16;11.25;;;5.30;;
10341;SDS011;5216;54.602;18.356;2022-08-23T12:45:55;11.27;;;5.15;;
10341;SDS011;5216;54.602;18.356;2022-08-23T12:48:24;11.85;;;5.25;;
10341;SDS011;5216;54.602;18.356;2022-08-23T12:50:58;11.88;;;5.38;;
10341;SDS011;5216;54.602;18.356;2022-08-23T12:53:32;11.20;;;7.30;;
10341;SDS011;5216;54.602;18.356;2022-08-23T12:56:01;11.02;;;5.93;;
10341;SDS011;5216;54.602;18.356;2022-08-23T12:58:29;12.82;;;5.50;;
10341;SDS011;5216;54.602;18.356;2022-08-23T13:01:00;8.93;;;5.00;;
10341;SDS011;5216;54.602;18.356;2022-08-23T13:03:32;11.35;;;5.40;;
10341;SDS011;5216;54.602;18.356;2022-08-23T13:06:08;10.95;;;5.03;;
10341;SDS011;5216;54.602;18.356;2022-08-23T13:08:48;9.65;;;5.28;;
10341;SDS011;5216;54.602;18.356;2022-08-23T13:11:18;9.23;;;5.35;;
10341;SDS011;5216;54.602;18.356;2022-08-23T13:13:45;10.07;;;4.70;;
10341;SDS011;5216;54.602;18.356;2022-08-23T13:21:39;10.05;;;5.22;;
10341;SDS011;5216;54.602;18.356;2022-08-23T13:27:15;11.43;;;4.95;;
10341;SDS011;5216;54.602;18.356;2022-08-23T13:29:50;16.80;;;5.75;;
10341;SDS011;5216;54.602;18.356;2022-08-23T13:32:27;9.60;;;6.10;;
10341;SDS011;5216;54.602;18.356;2022-08-23T13:35:21;9.20;;;5.00;;
10341;SDS011;5216;54.602;18.356;2022-08-23T13:37:43;13.35;;;5.70;;
10341;SDS011;5216;54.602;18.356;2022-08-23T13:40:15;14.15;;;5.95;;
10341;SDS011;5216;54.602;18.356;2022-08-23T13:42:43;10.02;;;4.75;;
10341;SDS011;5216;54.602;18.356;2022-08-23T13:45:20;10.25;;;4.70;;
10341;SDS011;5216;54.602;18.356;2022-08-23T13:47:49;10.38;;;5.45;;
10341;SDS011;5216;54.602;18.356;2022-08-23T13:50:21;9.05;;;5.63;;
10341;SDS011;5216;54.602;18.356;2022-08-23T13:52:48;9.93;;;4.80;;
10341;SDS011;5216;54.602;18.356;2022-08-23T13:55:38;7.63;;;4.80;;
10341;SDS011;5216;54.602;18.356;2022-08-23T13:58:08;11.98;;;4.97;;
10341;SDS011;5216;54.602;18.356;2022-08-23T14:00:35;11.27;;;4.90;;
10341;SDS011;5216;54.602;18.356;2022-08-23T14:03:01;10.25;;;4.55;;
10341;SDS011;5216;54.602;18.356;2022-08-23T14:05:28;8.57;;;5.00;;
10341;SDS011;5216;54.602;18.356;2022-08-23T14:07:58;11.15;;;4.90;;
10341;SDS011;5216;54.602;18.356;2022-08-23T14:10:25;9.25;;;4.82;;
10341;SDS011;5216;54.602;18.356;2022-08-23T14:12:52;8.93;;;4.78;;
10341;SDS011;5216;54.602;18.356;2022-08-23T14:15:19;9.30;;;5.13;;
10341;SDS011;5216;54.602;18.356;2022-08-23T14:18:06;8.45;;;4.68;;
10341;SDS011;5216;54.602;18.356;2022-08-23T14:20:33;9.73;;;5.07;;
10341;SDS011;5216;54.602;18.356;2022-08-23T14:23:10;12.35;;;5.30;;
10341;SDS011;5216;54.602;18.356;2022-08-23T14:25:38;12.07;;;5.00;;
10341;SDS011;5216;54.602;18.356;2022-08-23T14:28:05;10.75;;;4.95;;
10341;SDS011;5216;54.602;18.356;2022-08-23T14:30:33;15.00;;;4.63;;
10341;SDS011;5216;54.602;18.356;2022-08-23T14:33:01;7.47;;;4.57;;
10341;SDS011;5216;54.602;18.356;2022-08-23T14:35:28;13.95;;;5.55;;
10341;SDS011;5216;54.602;18.356;2022-08-23T14:37:55;10.07;;;4.75;;
10341;SDS011;5216;54.602;18.356;2022-08-23T14:40:30;11.15;;;4.85;;
10341;SDS011;5216;54.602;18.356;2022-08-23T14:42:57;10.20;;;4.72;;
10341;SDS011;5216;54.602;18.356;2022-08-23T14:45:24;10.27;;;4.85;;
10341;SDS011;5216;54.602;18.356;2022-08-23T14:47:50;9.73;;;4.40;;
10341;SDS011;5216;54.602;18.356;2022-08-23T14:50:17;12.60;;;4.90;;
10341;SDS011;5216;54.602;18.356;2022-08-23T14:52:44;11.05;;;3.97;;
10341;SDS011;5216;54.602;18.356;2022-08-23T14:55:11;14.50;;;5.22;;
10341;SDS011;5216;54.602;18.356;2022-08-23T14:57:38;11.18;;;5.03;;
10341;SDS011;5216;54.602;18.356;2022-08-23T15:00:06;12.90;;;4.70;;
10341;SDS011;5216;54.602;18.356;2022-08-23T15:02:33;8.40;;;4.60;;
10341;SDS011;5216;54.602;18.356;2022-08-23T15:05:02;8.88;;;4.75;;
10341;SDS011;5216;54.602;18.356;2022-08-23T15:07:29;9.80;;;5.25;;
10341;SDS011;5216;54.602;18.356;2022-08-23T15:09:55;14.02;;;5.72;;
10341;SDS011;5216;54.602;18.356;2022-08-23T15:12:22;13.50;;;8.15;;
10341;SDS011;5216;54.602;18.356;2022-08-23T15:15:14;14.73;;;5.70;;
10341;SDS011;5216;54.602;18.356;2022-08-23T15:17:46;9.07;;;5.03;;
10341;SDS011;5216;54.602;18.356;2022-08-23T15:20:13;10.25;;;4.82;;
10341;SDS011;5216;54.602;18.356;2022-08-23T15:22:40;13.90;;;5.45;;
10341;SDS011;5216;54.602;18.356;2022-08-23T15:25:10;11.80;;;5.03;;
10341;SDS011;5216;54.602;18.356;2022-08-23T15:27:37;11.45;;;4.75;;
10341;SDS011;5216;54.602;18.356;2022-08-23T15:30:04;35.78;;;28.73;;
10341;SDS011;5216;54.602;18.356;2022-08-23T15:32:31;24.58;;;17.67;;
10341;SDS011;5216;54.602;18.356;2022-08-23T15:34:58;17.33;;;7.43;;
10341;SDS011;5216;54.602;18.356;2022-08-23T15:37:24;10.32;;;4.90;;
10341;SDS011;5216;54.602;18.356;2022-08-23T15:39:51;11.82;;;6.10;;
10341;SDS011;5216;54.602;18.356;2022-08-23T15:42:18;9.65;;;4.80;;
10341;SDS011;5216;54.602;18.356;2022-08-23T15:44:46;8.88;;;5.60;;
10341;SDS011;5216;54.602;18.356;2022-08-23T15:47:15;10.27;;;5.90;;
10341;SDS011;5216;54.602;18.356;2022-08-23T15:49:43;8.77;;;4.78;;
10341;SDS011;5216;54.602;18.356;2022-08-23T15:52:09;10.63;;;4.47;;
10341;SDS011;5216;54.602;18.356;2022-08-23T15:54:36;9.65;;;4.35;;
10341;SDS011;5216;54.602;18.356;2022-08-23T15:57:02;9.23;;;4.65;;
10341;SDS011;5216;54.602;18.356;2022-08-23T15:59:30;9.13;;;4.53;;
10341;SDS011;5216;54.602;18.356;2022-08-23T16:01:57;9.25;;;4.63;;
10341;SDS011;5216;54.602;18.356;2022-08-23T16:04:23;15.60;;;4.78;;
10341;SDS011;5216;54.602;18.356;2022-08-23T16:06:50;8.30;;;4.30;;
10341;SDS011;5216;54.602;18.356;2022-08-23T16:09:18;13.32;;;5.07;;
10341;SDS011;5216;54.602;18.356;2022-08-23T16:11:45;9.75;;;4.57;;
10341;SDS011;5216;54.602;18.356;2022-08-23T16:14:12;9.80;;;4.28;;
10341;SDS011;5216;54.602;18.356;2022-08-23T16:16:39;11.73;;;4.85;;
10341;SDS011;5216;54.602;18.356;2022-08-23T16:19:06;11.27;;;4.90;;
10341;SDS011;5216;54.602;18.356;2022-08-23T16:21:34;11.70;;;6.03;;
10341;SDS011;5216;54.602;18.356;2022-08-23T16:24:01;10.93;;;5.07;;
10341;SDS011;5216;54.602;18.356;2022-08-23T16:26:28;9.30;;;4.90;;
10341;SDS011;5216;54.602;18.356;2022-08-23T16:29:01;10.82;;;4.97;;
10341;SDS011;5216;54.602;18.356;2022-08-23T16:31:27;8.85;;;4.68;;
10341;SDS011;5216;54.602;18.356;2022-08-23T16:34:05;38.20;;;34.13;;
10341;SDS011;5216;54.602;18.356;2022-08-23T16:36:33;9.98;;;5.28;;
10341;SDS011;5216;54.602;18.356;2022-08-23T16:38:59;8.45;;;4.70;;
10341;SDS011;5216;54.602;18.356;2022-08-23T16:41:26;11.73;;;5.18;;
10341;SDS011;5216;54.602;18.356;2022-08-23T16:43:52;9.32;;;4.50;;
10341;SDS011;5216;54.602;18.356;2022-08-23T16:46:19;13.93;;;4.88;;